createdAt,value
2022-10-11T00:01:55.859Z,89.10
2022-10-11T00:04:20.455Z,89.20
2022-10-11T00:06:43.865Z,89.20
2022-10-11T00:09:07.804Z,89.40
2022-10-11T00:11:31.080Z,89.50
2022-10-11T00:13:54.337Z,89.40
2022-10-11T00:16:17.561Z,89.30
2022-10-11T00:18:41.249Z,89.00
2022-10-11T00:21:09.510Z,89.40
2022-10-11T00:23:33.175Z,89.20
2022-10-11T00:25:59.241Z,89.30
2022-10-11T00:28:22.502Z,89.00
2022-10-11T00:30:45.813Z,88.90
2022-10-11T00:33:09.029Z,89.00
2022-10-11T00:35:32.321Z,88.90
2022-10-11T00:37:58.260Z,89.20
2022-10-11T00:40:22.358Z,89.00
2022-10-11T00:42:45.683Z,89.40
2022-10-11T00:46:00.199Z,89.30
2022-10-11T00:48:27.526Z,89.20
2022-10-11T00:50:51.395Z,89.30
2022-10-11T00:53:16.071Z,89.20
2022-10-11T00:55:46.396Z,89.10
2022-10-11T00:58:10.598Z,89.40
2022-10-11T01:00:33.932Z,89.30
2022-10-11T01:02:57.794Z,89.50
2022-10-11T01:05:29.967Z,89.20
2022-10-11T01:07:55.482Z,89.30
2022-10-11T01:10:20.187Z,89.30
2022-10-11T01:13:20.113Z,89.70
2022-10-11T01:15:49.403Z,89.60
2022-10-11T01:18:20.998Z,89.70
2022-10-11T01:20:56.690Z,89.70
2022-10-11T01:24:13.928Z,89.90
2022-10-11T01:27:14.811Z,89.90
2022-10-11T01:29:50.298Z,90.10
2022-10-11T01:32:18.794Z,90.00
2022-10-11T01:34:48.795Z,90.00
2022-10-11T01:37:18.372Z,90.00
2022-10-11T01:39:47.877Z,90.10
2022-10-11T01:42:13.560Z,89.80
2022-10-11T01:44:38.195Z,89.80
2022-10-11T01:47:01.450Z,89.80
2022-10-11T01:49:26.158Z,89.50
2022-10-11T01:51:52.355Z,89.40
2022-10-11T01:55:08.523Z,89.60
2022-10-11T01:58:04.573Z,89.60
2022-10-11T02:00:33.265Z,89.50
2022-10-11T02:03:14.220Z,89.80
2022-10-11T02:05:48.942Z,89.90
2022-10-11T02:08:22.308Z,89.50
2022-10-11T02:10:51.462Z,89.70
2022-10-11T02:13:25.108Z,89.70
2022-10-11T02:15:50.857Z,89.30
2022-10-11T02:18:18.919Z,89.40
2022-10-11T02:20:45.467Z,89.70
2022-10-11T02:23:13.644Z,89.80
2022-10-11T02:25:38.869Z,89.80
2022-10-11T02:28:06.825Z,90.10
2022-10-11T02:30:31.268Z,90.00
2022-10-11T02:32:55.683Z,90.20
2022-10-11T02:35:19.018Z,90.10
2022-10-11T02:37:50.880Z,90.00
2022-10-11T02:40:21.677Z,89.60
2022-10-11T02:42:51.417Z,89.50
2022-10-11T02:45:19.011Z,89.90
2022-10-11T02:47:43.672Z,90.20
2022-10-11T02:50:08.480Z,90.20
2022-10-11T02:52:31.659Z,90.20
2022-10-11T02:54:56.491Z,90.00
2022-10-11T02:57:19.809Z,89.90
2022-10-11T02:59:43.076Z,90.00
2022-10-11T03:02:06.328Z,90.00
2022-10-11T03:04:29.591Z,90.40
2022-10-11T03:06:52.848Z,89.80
2022-10-11T03:09:16.035Z,89.90
2022-10-11T03:11:40.843Z,90.30
2022-10-11T03:14:04.040Z,90.00
2022-10-11T03:16:27.367Z,90.00
2022-10-11T03:18:50.592Z,89.70
2022-10-11T03:21:14.257Z,89.80
2022-10-11T03:23:37.647Z,89.80
2022-10-11T03:26:00.944Z,89.90
2022-10-11T03:28:25.895Z,90.30
2022-10-11T03:30:51.606Z,90.30
2022-10-11T03:33:14.836Z,90.30
2022-10-11T03:35:38.052Z,90.30
2022-10-11T03:38:01.282Z,90.10
2022-10-11T03:40:24.511Z,89.90
2022-10-11T03:42:47.986Z,90.10
2022-10-11T03:45:13.128Z,90.30
2022-10-11T03:47:36.806Z,90.20
2022-10-11T03:50:00.033Z,90.10
2022-10-11T03:52:23.265Z,89.90
2022-10-11T03:54:46.994Z,89.90
2022-10-11T03:57:10.198Z,90.20
2022-10-11T03:59:33.429Z,90.30
2022-10-11T04:01:58.123Z,90.10
2022-10-11T04:04:21.395Z,90.40
2022-10-11T04:06:44.628Z,90.20
2022-10-11T04:09:07.856Z,90.20
2022-10-11T04:11:31.092Z,90.70
2022-10-11T04:13:54.497Z,90.50
2022-10-11T04:16:17.849Z,90.50
2022-10-11T04:18:42.606Z,90.20
2022-10-11T04:21:06.469Z,90.30
2022-10-11T04:23:31.252Z,90.30
2022-10-11T04:25:54.487Z,90.50
2022-10-11T04:28:17.708Z,90.60
2022-10-11T04:30:41.109Z,90.50
2022-10-11T04:33:04.420Z,90.50
2022-10-11T04:35:29.059Z,90.50
2022-10-11T04:37:52.260Z,90.90
2022-10-11T04:40:15.629Z,90.90
2022-10-11T04:42:38.832Z,90.80
2022-10-11T04:45:02.254Z,90.60
2022-10-11T04:47:25.623Z,90.90
2022-10-11T04:49:48.849Z,90.90
2022-10-11T04:52:13.848Z,90.70
2022-10-11T04:54:37.064Z,90.50
2022-10-11T04:57:00.275Z,90.30
2022-10-11T04:59:23.583Z,90.60
2022-10-11T05:01:46.856Z,90.60
2022-10-11T05:04:10.181Z,90.50
2022-10-11T05:06:33.392Z,90.30
2022-10-11T05:08:58.009Z,90.50
2022-10-11T05:11:21.294Z,90.10
2022-10-11T05:13:46.146Z,90.50
2022-10-11T05:16:11.122Z,90.30
2022-10-11T05:18:35.497Z,90.70
2022-10-11T05:21:03.267Z,91.00
2022-10-11T05:23:26.555Z,90.70
2022-10-11T05:25:51.402Z,90.40
2022-10-11T05:28:14.731Z,90.20
2022-10-11T05:30:38.013Z,90.60
2022-10-11T05:33:01.364Z,90.90
2022-10-11T05:35:24.583Z,90.80
2022-10-11T05:37:47.937Z,90.50
2022-10-11T05:40:12.419Z,90.30
2022-10-11T05:42:37.172Z,90.70
2022-10-11T05:45:00.363Z,90.90
2022-10-11T05:47:23.911Z,91.00
2022-10-11T05:49:47.221Z,90.60
2022-10-11T05:52:10.899Z,90.30
2022-10-11T05:54:34.220Z,90.70
2022-10-11T05:56:57.413Z,90.90
2022-10-11T05:59:22.032Z,90.90
2022-10-11T06:01:45.390Z,91.40
2022-10-11T06:04:08.609Z,91.40
2022-10-11T06:06:32.307Z,91.10
2022-10-11T06:08:55.641Z,91.40
2022-10-11T06:11:22.000Z,91.10
2022-10-11T06:13:45.390Z,91.30
2022-10-11T06:16:10.640Z,91.10
2022-10-11T06:18:33.796Z,91.10
2022-10-11T06:20:58.733Z,90.90
2022-10-11T06:23:22.045Z,90.90
2022-10-11T06:25:45.394Z,91.10
2022-10-11T06:28:08.727Z,91.30
2022-10-11T06:30:32.058Z,91.30
2022-10-11T06:32:59.081Z,91.50
2022-10-11T06:35:25.623Z,91.50
2022-10-11T06:37:48.977Z,91.60
2022-10-11T06:40:13.141Z,91.80
2022-10-11T06:42:36.384Z,91.80
2022-10-11T06:44:59.659Z,92.00
2022-10-11T06:47:22.994Z,91.70
2022-10-11T06:49:47.719Z,91.70
2022-10-11T06:52:11.047Z,91.70
2022-10-11T06:54:34.261Z,91.50
2022-10-11T06:56:57.615Z,91.80
2022-10-11T06:59:21.069Z,92.30
2022-10-11T07:01:45.070Z,92.50
2022-10-11T07:04:08.759Z,92.40
2022-10-11T07:06:37.412Z,92.50
2022-10-11T07:09:02.005Z,92.50
2022-10-11T07:11:28.051Z,92.40
2022-10-11T07:13:52.981Z,92.40
2022-10-11T07:16:16.230Z,92.60
2022-10-11T07:18:40.316Z,92.90
2022-10-11T07:21:05.014Z,93.00
2022-10-11T07:23:29.619Z,93.10
2022-10-11T07:25:55.039Z,93.20
2022-10-11T07:28:18.316Z,93.40
2022-10-11T07:30:42.651Z,93.50
2022-10-11T07:33:06.099Z,93.80
2022-10-11T07:35:29.403Z,93.30
2022-10-11T07:37:53.015Z,93.40
2022-10-11T07:40:17.841Z,93.40
2022-10-11T07:42:41.050Z,93.40
2022-10-11T07:45:04.786Z,93.20
2022-10-11T07:47:28.044Z,93.00
2022-10-11T07:49:51.285Z,92.80
2022-10-11T07:52:14.507Z,92.40
2022-10-11T07:54:37.886Z,92.00
2022-10-11T07:57:02.451Z,92.10
2022-10-11T07:59:25.631Z,91.40
2022-10-11T08:01:48.966Z,90.70
2022-10-11T08:04:12.431Z,90.90
2022-10-11T08:06:36.543Z,91.60
2022-10-11T08:09:01.210Z,91.70
2022-10-11T08:11:28.429Z,91.50
2022-10-11T08:13:53.443Z,91.10
2022-10-11T08:16:17.556Z,91.00
2022-10-11T08:18:40.864Z,91.60
2022-10-11T08:21:08.614Z,91.10
2022-10-11T08:23:31.873Z,90.00
2022-10-11T08:25:58.346Z,90.60
2022-10-11T08:28:21.683Z,90.30
2022-10-11T08:30:51.497Z,90.10
2022-10-11T08:33:14.748Z,88.40
2022-10-11T08:35:38.184Z,88.60
2022-10-11T08:38:01.554Z,90.10
2022-10-11T08:40:26.208Z,88.10
2022-10-11T08:42:57.652Z,87.90
2022-10-11T08:45:31.772Z,88.90
2022-10-11T08:48:09.107Z,88.70
2022-10-11T08:50:32.811Z,86.70
2022-10-11T08:53:00.755Z,87.40
2022-10-11T08:55:30.878Z,87.00
2022-10-11T08:57:57.052Z,85.50
2022-10-11T09:00:22.131Z,87.30
2022-10-11T09:03:08.143Z,86.60
2022-10-11T09:05:50.273Z,86.60
2022-10-11T09:08:23.168Z,85.20
2022-10-11T09:11:00.418Z,87.20
2022-10-11T09:13:52.887Z,86.60
2022-10-11T09:16:29.213Z,86.40
2022-10-11T09:19:24.951Z,86.80
2022-10-11T09:21:59.863Z,84.10
2022-10-11T09:24:45.726Z,84.20
2022-10-11T09:27:18.937Z,85.40
2022-10-11T09:29:57.032Z,84.40
2022-10-11T09:32:21.953Z,85.70
2022-10-11T09:34:45.356Z,84.50
2022-10-11T09:37:21.117Z,86.20
2022-10-11T09:39:52.440Z,85.20
2022-10-11T09:42:15.886Z,84.90
2022-10-11T09:44:41.540Z,84.80
2022-10-11T09:47:06.627Z,86.20
2022-10-11T09:49:34.826Z,85.30
2022-10-11T09:52:02.429Z,84.10
2022-10-11T09:54:41.503Z,84.10
2022-10-11T09:57:06.917Z,84.80
2022-10-11T09:59:33.813Z,83.80
2022-10-11T10:02:23.829Z,83.50
2022-10-11T10:05:03.518Z,83.50
2022-10-11T10:07:28.439Z,83.80
2022-10-11T10:09:53.854Z,82.60
2022-10-11T10:12:24.379Z,83.20
2022-10-11T10:15:05.969Z,82.70
2022-10-11T10:17:29.317Z,83.70
2022-10-11T10:19:55.591Z,82.40
2022-10-11T10:22:21.718Z,82.90
2022-10-11T10:24:45.047Z,82.80
2022-10-11T10:27:22.148Z,82.80
2022-10-11T10:30:01.664Z,83.80
2022-10-11T10:32:32.103Z,83.80
2022-10-11T10:35:07.157Z,81.90
2022-10-11T10:37:36.526Z,82.10
2022-10-11T10:40:04.772Z,81.40
2022-10-11T10:42:30.308Z,82.30
2022-10-11T10:44:58.616Z,81.00
2022-10-11T10:47:43.001Z,81.50
2022-10-11T10:50:11.870Z,81.00
2022-10-11T10:52:58.826Z,81.40
2022-10-11T10:55:28.900Z,80.30
2022-10-11T10:58:09.647Z,80.70
2022-10-11T11:00:43.600Z,81.60
2022-10-11T11:03:13.233Z,80.60
2022-10-11T11:05:48.315Z,80.70
2022-10-11T11:08:17.380Z,78.90
2022-10-11T11:10:50.139Z,79.30
2022-10-11T11:13:36.464Z,79.60
2022-10-11T11:16:21.245Z,78.60
2022-10-11T11:18:56.445Z,77.90
2022-10-11T11:21:41.353Z,78.80
2022-10-11T11:24:16.351Z,78.70
2022-10-11T11:26:45.819Z,78.50
2022-10-11T11:29:24.588Z,77.60
2022-10-11T11:32:12.965Z,76.00
2022-10-11T11:34:41.309Z,76.70
2022-10-11T11:37:12.904Z,76.20
2022-10-11T11:39:43.324Z,75.00
2022-10-11T11:42:12.829Z,75.80
2022-10-11T11:44:40.202Z,74.80
2022-10-11T11:47:08.676Z,74.80
2022-10-11T11:49:37.966Z,73.30
2022-10-11T11:52:01.799Z,73.30
2022-10-11T11:54:38.062Z,74.40
2022-10-11T11:57:09.072Z,72.90
2022-10-11T11:59:43.726Z,74.40
2022-10-11T12:02:36.474Z,71.80
2022-10-11T12:05:00.674Z,71.30
2022-10-11T12:07:27.142Z,71.90
2022-10-11T12:09:55.209Z,71.80
2022-10-11T12:12:32.139Z,70.20
2022-10-11T12:15:16.368Z,70.80
2022-10-11T12:18:04.844Z,69.80
2022-10-11T12:20:31.334Z,70.00
2022-10-11T12:23:00.030Z,70.50
2022-10-11T12:25:44.303Z,68.90
2022-10-11T12:29:02.136Z,70.30
2022-10-11T12:31:30.308Z,66.80
2022-10-11T12:34:18.652Z,65.80
2022-10-11T12:36:43.932Z,65.50
2022-10-11T12:39:48.084Z,66.30
2022-10-11T12:42:32.131Z,66.60
2022-10-11T12:45:31.787Z,67.10
2022-10-11T12:48:41.022Z,63.70
2022-10-11T12:51:30.874Z,65.10
2022-10-11T12:54:36.936Z,66.80
2022-10-11T12:57:45.891Z,62.90
2022-10-11T13:00:21.676Z,66.10
2022-10-11T13:02:45.782Z,63.20
2022-10-11T13:05:23.151Z,65.40
2022-10-11T13:07:46.888Z,65.30
2022-10-11T13:10:14.863Z,64.60
2022-10-11T13:12:43.327Z,65.70
2022-10-11T13:15:10.142Z,63.60
2022-10-11T13:17:38.634Z,68.40
2022-10-11T13:20:07.580Z,67.00
2022-10-11T13:22:36.746Z,65.60
2022-10-11T13:25:00.228Z,67.50
2022-10-11T13:27:27.570Z,68.40
2022-10-11T13:29:53.162Z,66.90
2022-10-11T13:32:19.552Z,66.10
2022-10-11T13:34:46.468Z,69.50
2022-10-11T13:37:18.045Z,69.00
2022-10-11T13:39:43.907Z,66.80
2022-10-11T13:42:12.903Z,66.00
2022-10-11T13:44:39.651Z,66.90
2022-10-11T13:47:03.056Z,63.70
2022-10-11T13:49:37.491Z,64.90
2022-10-11T13:52:04.447Z,62.60
2022-10-11T13:54:56.061Z,67.00
2022-10-11T13:57:19.391Z,66.30
2022-10-11T13:59:44.641Z,64.80
2022-10-11T14:02:21.381Z,67.30
2022-10-11T14:04:44.768Z,64.80
2022-10-11T14:07:16.195Z,61.70
2022-10-11T14:09:40.715Z,64.30
2022-10-11T14:12:32.196Z,65.60
2022-10-11T14:14:55.837Z,62.10
2022-10-11T14:17:22.001Z,62.40
2022-10-11T14:19:47.567Z,61.60
2022-10-11T14:22:16.620Z,63.20
2022-10-11T14:24:39.859Z,63.00
2022-10-11T14:27:07.315Z,62.60
2022-10-11T14:29:35.126Z,66.90
2022-10-11T14:32:05.234Z,68.50
2022-10-11T14:34:29.213Z,69.10
2022-10-11T14:36:53.647Z,64.40
2022-10-11T14:39:20.118Z,65.60
2022-10-11T14:41:43.638Z,60.10
2022-10-11T14:44:06.866Z,60.50
2022-10-11T14:46:31.595Z,64.60
2022-10-11T14:48:56.813Z,63.40
2022-10-11T14:51:24.561Z,62.50
2022-10-11T14:53:47.950Z,65.60
2022-10-11T14:56:11.156Z,64.40
2022-10-11T14:58:34.480Z,62.20
2022-10-11T15:00:57.803Z,63.80
2022-10-11T15:03:22.498Z,63.80
2022-10-11T15:05:45.743Z,60.10
2022-10-11T15:08:09.364Z,61.10
2022-10-11T15:10:37.094Z,63.70
2022-10-11T15:13:00.806Z,61.90
2022-10-11T15:15:27.239Z,65.20
2022-10-11T15:17:54.549Z,62.90
2022-10-11T15:20:27.480Z,64.80
2022-10-11T15:22:51.053Z,63.60
2022-10-11T15:25:14.396Z,64.60
2022-10-11T15:27:38.123Z,64.50
2022-10-11T15:30:01.793Z,64.00
2022-10-11T15:32:25.269Z,66.20
2022-10-11T15:34:48.532Z,65.40
2022-10-11T15:37:13.422Z,64.90
2022-10-11T15:39:37.169Z,62.60
2022-10-11T15:42:01.119Z,62.00
2022-10-11T15:44:24.604Z,62.70
2022-10-11T15:46:47.962Z,66.70
2022-10-11T15:49:13.899Z,68.10
2022-10-11T15:51:37.130Z,68.90
2022-10-11T15:54:01.811Z,70.40
2022-10-11T15:56:25.066Z,73.00
2022-10-11T15:58:48.311Z,71.70
2022-10-11T16:01:15.788Z,69.90
2022-10-11T16:03:39.227Z,69.80
2022-10-11T16:06:05.549Z,70.10
2022-10-11T16:08:29.279Z,71.90
2022-10-11T16:10:55.663Z,72.00
2022-10-11T16:13:19.572Z,73.80
2022-10-11T16:15:44.994Z,74.10
2022-10-11T16:18:09.608Z,73.90
2022-10-11T16:20:32.976Z,74.90
2022-10-11T16:22:56.573Z,74.00
2022-10-11T16:25:20.826Z,74.70
2022-10-11T16:27:46.111Z,75.30
2022-10-11T16:30:12.274Z,75.90
2022-10-11T16:32:36.128Z,75.70
2022-10-11T16:34:59.339Z,76.00
2022-10-11T16:37:22.737Z,77.00
2022-10-11T16:39:46.209Z,77.90
2022-10-11T16:42:09.569Z,77.70
2022-10-11T16:44:34.341Z,77.70
2022-10-11T16:46:58.006Z,78.20
2022-10-11T16:49:24.741Z,78.70
2022-10-11T16:51:48.051Z,78.60
2022-10-11T16:54:11.615Z,79.40
2022-10-11T16:56:39.737Z,79.80
2022-10-11T16:59:04.308Z,79.80
2022-10-11T17:01:29.941Z,80.50
2022-10-11T17:03:53.758Z,80.40
2022-10-11T17:06:17.050Z,80.70
2022-10-11T17:08:40.387Z,80.80
2022-10-11T17:11:04.067Z,81.30
2022-10-11T17:13:27.586Z,81.70
2022-10-11T17:15:51.717Z,81.80
2022-10-11T17:18:16.972Z,82.10
2022-10-11T17:20:40.157Z,82.20
2022-10-11T17:23:03.949Z,82.10
2022-10-11T17:25:28.124Z,82.10
2022-10-11T17:27:51.364Z,82.50
2022-10-11T17:30:15.064Z,82.90
2022-10-11T17:32:38.348Z,81.80
2022-10-11T17:35:03.676Z,82.10
2022-10-11T17:37:27.139Z,82.80
2022-10-11T17:39:50.416Z,82.90
2022-10-11T17:42:13.791Z,83.20
2022-10-11T17:44:37.881Z,82.60
2022-10-11T17:47:01.117Z,83.40
2022-10-11T17:49:24.392Z,84.00
2022-10-11T17:51:48.989Z,83.80
2022-10-11T17:54:12.668Z,83.90
2022-10-11T17:56:38.219Z,83.90
2022-10-11T17:59:01.519Z,84.20
2022-10-11T18:01:27.963Z,84.70
2022-10-11T18:03:57.583Z,84.60
2022-10-11T18:06:20.928Z,84.80
2022-10-11T18:08:45.633Z,85.00
2022-10-11T18:11:12.458Z,84.70
2022-10-11T18:13:35.702Z,84.90
2022-10-11T18:15:58.958Z,84.80
2022-10-11T18:18:22.168Z,85.20
2022-10-11T18:20:49.142Z,85.20
2022-10-11T18:23:12.340Z,84.70
2022-10-11T18:25:37.156Z,85.20
2022-10-11T18:28:00.367Z,85.70
2022-10-11T18:30:23.760Z,85.40
2022-10-11T18:32:46.984Z,84.80
2022-10-11T18:35:10.868Z,85.60
2022-10-11T18:37:34.461Z,85.20
2022-10-11T18:39:57.726Z,85.60
2022-10-11T18:42:22.442Z,85.40
2022-10-11T18:44:45.789Z,85.60
2022-10-11T18:47:09.043Z,86.00
2022-10-11T18:49:32.294Z,86.20
2022-10-11T18:51:55.498Z,85.50
2022-10-11T18:54:21.399Z,85.90
2022-10-11T18:56:44.871Z,85.90
2022-10-11T18:59:09.581Z,86.30
2022-10-11T19:01:34.962Z,86.20
2022-10-11T19:04:00.891Z,86.70
2022-10-11T19:06:27.098Z,86.80
2022-10-11T19:08:51.955Z,86.60
2022-10-11T19:11:16.933Z,86.50
2022-10-11T19:13:41.080Z,86.90
2022-10-11T19:16:09.443Z,86.90
2022-10-11T19:18:33.088Z,86.90
2022-10-11T19:20:56.323Z,86.70
2022-10-11T19:23:20.602Z,87.00
2022-10-11T19:25:43.771Z,87.30
2022-10-11T19:28:07.010Z,87.30
2022-10-11T19:30:32.442Z,87.30
2022-10-11T19:32:57.025Z,87.40
2022-10-11T19:35:20.278Z,87.40
2022-10-11T19:37:43.483Z,87.20
2022-10-11T19:40:08.991Z,87.40
2022-10-11T19:42:32.390Z,87.50
2022-10-11T19:44:55.896Z,87.40
2022-10-11T19:47:19.098Z,87.60
2022-10-11T19:49:43.615Z,87.60
2022-10-11T19:52:06.823Z,87.60
2022-10-11T19:54:30.167Z,87.50
2022-10-11T19:56:53.579Z,87.50
2022-10-11T19:59:17.673Z,87.70
2022-10-11T20:01:41.880Z,87.40
2022-10-11T20:04:08.570Z,87.60
2022-10-11T20:06:38.491Z,87.30
2022-10-11T20:09:27.358Z,87.90
2022-10-11T20:11:45.849Z,87.80
2022-10-11T20:14:09.752Z,87.70
2022-10-11T20:16:33.069Z,87.90
2022-10-11T20:18:59.179Z,87.90
2022-10-11T20:21:25.006Z,88.00
2022-10-11T20:23:52.554Z,88.10
2022-10-11T20:26:18.565Z,87.80
2022-10-11T20:28:43.371Z,88.00
2022-10-11T20:31:14.283Z,87.40
2022-10-11T20:33:37.686Z,87.70
2022-10-11T20:36:03.967Z,88.30
2022-10-11T20:38:27.559Z,88.10
2022-10-11T20:40:52.245Z,88.10
2022-10-11T20:43:15.587Z,88.10
2022-10-11T20:45:38.767Z,88.00
2022-10-11T20:48:02.009Z,88.30
2022-10-11T20:50:25.317Z,88.40
2022-10-11T20:52:48.722Z,88.20
2022-10-11T20:55:11.925Z,88.00
2022-10-11T20:57:36.783Z,88.50
2022-10-11T21:00:00.082Z,88.30
2022-10-11T21:02:23.322Z,88.40
2022-10-11T21:04:46.563Z,88.50
2022-10-11T21:07:09.820Z,88.50
2022-10-11T21:09:33.092Z,88.00
2022-10-11T21:11:56.335Z,88.30
2022-10-11T21:14:20.964Z,88.30
2022-10-11T21:16:44.392Z,88.30
2022-10-11T21:19:07.620Z,88.00
2022-10-11T21:21:31.789Z,88.00
2022-10-11T21:23:55.680Z,88.30
2022-10-11T21:26:19.019Z,88.60
2022-10-11T21:28:42.462Z,88.70
2022-10-11T21:31:09.082Z,88.90
2022-10-11T21:33:32.465Z,88.90
2022-10-11T21:35:55.668Z,88.50
2022-10-11T21:38:18.854Z,88.70
2022-10-11T21:40:42.106Z,88.70
2022-10-11T21:43:05.297Z,88.50
2022-10-11T21:45:28.564Z,88.40
2022-10-11T21:47:53.212Z,88.40
2022-10-11T21:50:16.830Z,88.70
2022-10-11T21:52:40.048Z,88.50
2022-10-11T21:55:03.412Z,88.60
2022-10-11T21:57:26.693Z,88.50
2022-10-11T21:59:50.355Z,88.50
2022-10-11T22:02:13.651Z,88.90
2022-10-11T22:04:38.804Z,88.80
2022-10-11T22:07:02.092Z,88.90
2022-10-11T22:09:25.613Z,88.80
2022-10-11T22:11:48.831Z,89.00
2022-10-11T22:14:12.117Z,88.80
2022-10-11T22:16:35.994Z,88.60
2022-10-11T22:19:00.033Z,89.00
2022-10-11T22:21:25.279Z,89.00
2022-10-11T22:23:50.682Z,89.00
2022-10-11T22:26:17.824Z,89.20
2022-10-11T22:28:41.799Z,89.30
2022-10-11T22:31:06.619Z,89.10
2022-10-11T22:33:29.897Z,89.20
2022-10-11T22:35:55.816Z,89.30
2022-10-11T22:38:20.513Z,89.20
2022-10-11T22:40:43.730Z,88.80
2022-10-11T22:43:07.360Z,89.10
2022-10-11T22:45:30.700Z,88.90
2022-10-11T22:47:53.971Z,89.00
2022-10-11T22:50:17.331Z,89.90
2022-10-11T22:52:40.691Z,88.90
2022-10-11T22:55:05.967Z,89.30
2022-10-11T22:57:29.214Z,89.30
2022-10-11T22:59:52.478Z,88.90
2022-10-11T23:02:15.856Z,89.10
2022-10-11T23:04:39.089Z,89.20
2022-10-11T23:07:04.958Z,89.20
2022-10-11T23:09:28.923Z,89.30
2022-10-11T23:11:54.218Z,89.50
2022-10-11T23:14:17.540Z,89.40
2022-10-11T23:16:40.743Z,89.10
2022-10-11T23:19:04.032Z,89.20
2022-10-11T23:21:27.467Z,89.20
2022-10-11T23:23:53.918Z,89.40
2022-10-11T23:26:18.145Z,89.20
2022-10-11T23:28:43.662Z,89.40
2022-10-11T23:31:12.045Z,89.10
2022-10-11T23:33:35.788Z,89.10
2022-10-11T23:35:59.064Z,89.00
2022-10-11T23:38:22.303Z,88.60
2022-10-11T23:40:45.553Z,89.10
2022-10-11T23:43:08.814Z,89.20
2022-10-11T23:45:33.405Z,89.40
2022-10-11T23:47:56.767Z,89.20
2022-10-11T23:50:19.968Z,89.40
2022-10-11T23:52:43.742Z,89.40
2022-10-11T23:55:08.106Z,89.30
2022-10-11T23:57:31.355Z,89.10
2022-10-11T23:59:54.547Z,89.50
